KIPT/IPT METAR and TAF weather

Enter ICAO airport designator
Station Type Date Time Source
KIPT METAR 2018/12/17 01:54 UTC NOAA

KIPT 170154Z 25006KT 10SM OVC037 04/03 A2989 RMK AO2 SLP125 T00390028


Station Type Date Time Source
KIPT Decoded METAR 2018/12/17 01:54 UTC NOAA

WILLIAMSPORT-LYCOMING COUNTY, PA, United States (KIPT) 41-15N 076-55W 164M
Dec 16, 2018 - 08:54 PM EST / 2018.12.17 0154 UTC
Wind: from the WSW (250 degrees) at 7 MPH (6 KT):0
Visibility: 10 mile(s):0
Sky conditions: overcast
Temperature: 39.0 F (3.9 C)
Dew Point: 37.0 F (2.8 C)
Relative Humidity: 92%
Pressure (altimeter): 29.89 in. Hg (1012 hPa)
ob: KIPT 170154Z 25006KT 10SM OVC037 04/03 A2989 RMK AO2 SLP125 T00390028
cycle: 2

Station Type Date Time Source
KIPT TAF 2018/12/17 02:09 UTC NOAA

TAF
AMD KIPT 170207Z 1702/1724 29003KT P6SM BKN025 OVC035
TEMPO 1702/1703 OVC035
FM170930 28004KT P6SM SCT035
FM171500 28015G22KT P6SM BKN035


Example: see airport list